Portada
METAR-TAF:

METAR-TAF

Aeropuertos :

Qaisumah, Arabia Saudita

latitud: 28-19N, longitud: 046-07E, altitud: 358 m

Observación

El informe se hizo hace 45 minutos, a las 22:00 UTC
Viento 14 kt del sur-sureste
Temperatura 9°C
Humedad 53%
Presión 1017 hPa
Visibilidad 10 km o más
sin nubes por debajo de 1500 m y sin presencia de cumulonimbus.

METAR: OEPA 242200Z 15014KT CAVOK 09/00 Q1017 NOSIG

Hora: 01:45 (22:45 UTC)

Pronóstico

El informe se hizo hace 11 horas y 45 minutos, a las 11:00 UTC
Pronóstico válido del 24 a las 12 UTC al 25 a las 18 UTC
Viento 14 kt del sur
Visibilidad 10 km o más
sin nubes por debajo de 1500 m y sin presencia de cumulonimbus.
Evolucionando progresivamente
del 24 a las 22 UTC al 24 a las 24 UTC
Viento 12 kt del oeste-noroeste

TAF: OEPA 241100Z 2412/2518 17014KT CAVOK BECMG 2422/2424 29012KT

Observaciones y pronósticos meteorológicos de más de 4000 aeropuertos (mensajes METAR y TAF).

Los puntos amarillos y rojos representan las estaciones disponibles.

Ponga el ratón en el punto deseado para ver el nombre de la estación.

Haga clic para ver las observaciones y los pronósticos meteorológicos.

Para cambiar el mapa : haga clic en los botones verdes con una cruz de color negro para hacer un zoom, en el botón verde con un guión para alejar o en las flechas verdes para mapas adyacentes.


METAR-TAF: